CheckWX is a tool to help pilots better visualize weather data.  It is not intended as a substitute for an official pre-flight weather briefing.

09:29:57 UTC

KBAN METAR
Bridgeport (MCMWT)
Bridgeport, California, USA
Current

38 mins ago

KBAN 200852Z AUTO VRB03KT 10SM CLR 01/M15 A2981 RMK AO2 SLP086 T00061150 58029 FZRANO $
Observed
Feb-20 @ 08:52 UTC
Wind
  • Variable at 3 KTS
Visibility
16,093 meters
Flight Rules
VFR
Cloud Levels
  • Clear skies
Temperature
C / 34°F
Dewpoint
-15°C / 5°F
Humidity
29%
Altimeter
29.81" Hg
Pressure
1008.6 hPa
Previous

2 hours ago

KBAN 200752Z AUTO 00000KT 10SM CLR 00/M16 A2985 RMK AO2 SLP107 T00001156 400941233 FZRANO $
Observed
Feb-20 @ 07:52 UTC
Visibility
16,093 meters
Flight Rules
VFR
Cloud Levels
  • Clear skies
Temperature
C / 32°F
Dewpoint
-16°C / 3°F
Humidity
29%
Altimeter
29.85" Hg
Pressure
1010.7 hPa
Previous

3 hours ago

KBAN 200652Z AUTO 00000KT 10SM BKN080 M05/M14 A2988 RMK AO2 SLP141 T10501144 FZRANO $
Observed
Feb-20 @ 06:52 UTC
Visibility
16,093 meters
Flight Rules
VFR
Cloud Levels
  • Broken at 8,000' AGL
Temperature
-5°C / 23°F
Dewpoint
-14°C / 7°F
Humidity
50%
Altimeter
29.88" Hg
Pressure
1014.1 hPa